Time;durP1;ratioP1;P1;durP2;ratioP2;P2;SDS_P1;SDS_P2;PMS_P1;PMS_P2;Temp;Humidity;BMP_temperature;BMP_pressure;BME280_temperature;BME280_humidity;BME280_pressure;Samples;Min_cycle;Max_cycle;Signal;HPM_P1;HPM_P2
2022/03/23 00:01:59;;;;;;;148.25;71.42;;;;;;;1.04;50.90;101973.58;2030743;87;27735;-78
2022/03/23 00:05:01;;;;;;;141.75;64.10;;;;;;;1.15;50.65;101981.68;2030660;87;28649;-77
2022/03/23 00:08:03;;;;;;;143.45;66.60;;;;;;;1.22;50.88;101978.27;2043430;86;31849;-74
2022/03/23 00:11:05;;;;;;;150.85;70.60;;;;;;;1.29;50.60;101989.39;2103630;84;33730;-77
2022/03/23 00:26:22;;;;;;;151.18;70.90;;;;;;;1.30;50.84;101983.66;2070931;85;30153;-76
2022/03/23 00:29:23;;;;;;;167.65;75.45;;;;;;;1.25;50.83;101979.64;2071145;86;29517;-75
2022/03/23 00:32:26;;;;;;;164.88;76.55;;;;;;;1.21;50.87;101972.52;2079190;84;27703;-74
2022/03/23 00:35:27;;;;;;;167.98;79.40;;;;;;;1.18;50.95;101972.05;2067760;86;29561;-73
2022/03/23 00:38:32;;;;;;;161.95;76.80;;;;;;;1.12;51.14;101964.02;2050264;86;31033;-77
2022/03/23 00:41:34;;;;;;;163.82;79.97;;;;;;;1.07;51.24;101968.36;2034505;86;33124;-78
2022/03/23 00:44:37;;;;;;;159.80;79.53;;;;;;;1.02;51.11;101965.62;2016388;88;29308;-75
2022/03/23 00:47:41;;;;;;;163.55;79.42;;;;;;;0.96;51.34;101962.89;2016486;88;27768;-73
2022/03/23 00:50:43;;;;;;;161.90;81.20;;;;;;;0.89;51.36;101963.64;2016179;88;29407;-76
2022/03/23 00:53:45;;;;;;;162.37;79.05;;;;;;;0.81;51.43;101957.35;2016592;86;31033;-75
2022/03/23 00:56:48;;;;;;;179.70;82.35;;;;;;;0.74;51.43;101957.68;2014717;86;33735;-75
2022/03/23 00:59:49;;;;;;;179.10;86.30;;;;;;;0.68;51.64;101952.28;2012878;88;29987;-76
2022/03/23 01:02:52;;;;;;;180.35;85.38;;;;;;;0.63;51.99;101951.30;2012480;88;27739;-75
2022/03/23 01:05:54;;;;;;;166.47;78.42;;;;;;;0.56;51.80;101953.84;2013227;88;28676;-75
2022/03/23 01:08:56;;;;;;;160.37;73.80;;;;;;;0.50;52.11;101943.62;1987701;88;31877;-81
2022/03/23 01:11:58;;;;;;;167.47;75.20;;;;;;;0.45;52.94;101937.81;2013275;87;33679;-76
2022/03/23 01:15:00;;;;;;;158.20;74.75;;;;;;;0.44;52.87;101936.03;2013190;88;29325;-74
2022/03/23 01:18:02;;;;;;;161.52;76.20;;;;;;;0.43;52.91;101928.98;2012025;87;27758;-73
2022/03/23 01:21:04;;;;;;;158.85;75.05;;;;;;;0.40;52.81;101933.33;2012563;86;28676;-72
2022/03/23 01:24:06;;;;;;;150.42;74.47;;;;;;;0.35;52.82;101925.30;2010113;88;31086;-76
2022/03/23 01:27:08;;;;;;;152.50;72.80;;;;;;;0.29;53.00;101927.84;2010639;88;32984;-74
2022/03/23 01:30:13;;;;;;;136.97;67.62;;;;;;;0.24;53.00;101925.53;2047589;86;30210;-75
2022/03/23 01:33:15;;;;;;;109.50;51.95;;;;;;;0.18;53.23;101923.67;2049877;86;33509;-73
2022/03/23 01:36:17;;;;;;;155.35;72.15;;;;;;;0.14;53.58;101925.78;2049728;86;28717;-77
2022/03/23 01:39:19;;;;;;;144.65;69.00;;;;;;;0.07;53.96;101923.45;2049606;86;31008;-73
2022/03/23 01:42:20;;;;;;;138.88;67.62;;;;;;;0.02;53.57;101919.83;2049643;86;34032;-74
2022/03/23 01:45:22;;;;;;;148.50;71.67;;;;;;;-0.05;53.48;101921.45;2041497;85;29381;-76
2022/03/23 01:48:24;;;;;;;149.25;71.17;;;;;;;-0.11;53.73;101923.98;2013356;88;27648;-77
2022/03/23 01:51:26;;;;;;;148.17;69.03;;;;;;;-0.16;53.83;101923.86;2013099;88;28834;-77
2022/03/23 01:54:27;;;;;;;149.20;71.15;;;;;;;-0.21;54.14;101928.58;2013208;87;31184;-76
2022/03/23 01:57:30;;;;;;;150.27;72.42;;;;;;;-0.26;54.28;101927.17;2015359;87;33121;-77
2022/03/23 02:00:31;;;;;;;148.85;71.22;;;;;;;-0.32;54.49;101926.61;2016242;88;30185;-77
2022/03/23 02:03:33;;;;;;;147.40;70.50;;;;;;;-0.38;54.59;101930.86;2013880;88;27636;-77
2022/03/23 02:06:35;;;;;;;152.53;71.45;;;;;;;-0.43;54.80;101935.13;2015878;88;29476;-77
2022/03/23 02:09:37;;;;;;;144.25;66.97;;;;;;;-0.48;54.98;101940.30;2016422;88;31043;-75
2022/03/23 02:12:39;;;;;;;142.85;67.12;;;;;;;-0.55;54.98;101931.37;1992164;88;32960;-76
2022/03/23 02:15:41;;;;;;;133.65;64.75;;;;;;;-0.60;54.95;101932.13;2015759;86;30253;-76
2022/03/23 02:18:43;;;;;;;139.30;65.55;;;;;;;-0.68;55.11;101924.05;2015153;88;27678;-75
2022/03/23 02:21:49;;;;;;;136.45;66.45;;;;;;;-0.73;55.23;101919.10;2015616;86;29466;-75
2022/03/23 02:24:51;;;;;;;135.90;64.82;;;;;;;-0.80;55.51;101916.31;2016084;88;32204;-76
2022/03/23 02:27:54;;;;;;;135.37;64.35;;;;;;;-0.86;55.39;101921.45;2016105;88;32978;-76
2022/03/23 02:30:56;;;;;;;132.27;66.47;;;;;;;-0.90;55.41;101922.63;2016698;88;30171;-76
2022/03/23 02:33:58;;;;;;;135.78;66.17;;;;;;;-0.96;55.43;101920.75;2016276;88;27749;-77
2022/03/23 02:37:00;;;;;;;136.25;64.05;;;;;;;-1.02;55.40;101924.13;1992307;88;29559;-78
2022/03/23 02:40:02;;;;;;;134.65;65.60;;;;;;;-1.07;55.92;101922.70;2015952;88;31013;-76
2022/03/23 02:43:04;;;;;;;130.10;63.35;;;;;;;-1.11;56.33;101923.91;2016850;86;32414;-76
2022/03/23 02:46:15;;;;;;;135.78;64.45;;;;;;;-1.12;56.43;101921.69;2016707;87;29321;-76
2022/03/23 02:49:18;;;;;;;131.00;61.83;;;;;;;-1.14;56.30;101921.20;2035539;86;27692;-75
2022/03/23 02:52:19;;;;;;;133.70;63.75;;;;;;;-1.20;56.54;101913.14;2016614;88;28680;-74
2022/03/23 03:02:23;;;;;;;137.72;63.05;;;;;;;-1.27;56.92;101916.95;2016343;88;28874;-75
2022/03/23 03:05:24;;;;;;;126.47;60.35;;;;;;;-1.28;56.96;101918.21;2022698;86;27565;-76
2022/03/23 03:08:45;;;;;;;142.47;68.25;;;;;;;-1.29;57.28;101912.48;2046437;86;28641;-76
2022/03/23 03:11:47;;;;;;;137.37;64.40;;;;;;;-1.28;57.48;101914.27;2016794;88;31041;-72
2022/03/23 03:14:49;;;;;;;135.75;64.27;;;;;;;-1.27;57.86;101912.10;2017133;86;32958;-72
2022/03/23 03:17:50;;;;;;;138.05;69.07;;;;;;;-1.27;58.01;101918.27;2016276;88;30096;-73
2022/03/23 03:20:52;;;;;;;129.80;65.40;;;;;;;-1.27;57.62;101915.64;2016110;88;27734;-77
2022/03/23 03:23:54;;;;;;;138.03;65.87;;;;;;;-1.27;57.52;101913.01;2014769;88;28645;-77
2022/03/23 03:26:56;;;;;;;138.52;66.97;;;;;;;-1.29;57.62;101909.86;2014530;88;31910;-73
2022/03/23 03:29:58;;;;;;;131.00;65.95;;;;;;;-1.32;57.69;101911.12;2015818;88;32947;-75
2022/03/23 03:32:59;;;;;;;142.70;67.22;;;;;;;-1.35;57.58;101907.97;2016546;88;30128;-72
2022/03/23 03:36:01;;;;;;;140.92;66.15;;;;;;;-1.39;57.61;101905.69;2016688;88;27723;-73
2022/03/23 03:39:04;;;;;;;142.70;65.67;;;;;;;-1.42;57.71;101907.36;2016008;88;28639;-73
2022/03/23 03:42:07;;;;;;;140.68;68.22;;;;;;;-1.45;57.71;101909.91;2016458;88;31035;-72
2022/03/23 03:45:10;;;;;;;130.63;65.00;;;;;;;-1.49;57.99;101902.78;2045400;86;33024;-73
2022/03/23 03:48:13;;;;;;;137.72;66.92;;;;;;;-1.54;57.90;101900.04;2048972;86;29380;-72
2022/03/23 03:51:15;;;;;;;137.18;65.05;;;;;;;-1.59;58.23;101902.96;2021229;86;27691;-71
2022/03/23 03:54:17;;;;;;;135.20;65.12;;;;;;;-1.63;58.10;101903.31;2049576;86;28674;-71
2022/03/23 03:57:19;;;;;;;136.88;63.02;;;;;;;-1.67;58.29;101903.20;2044854;86;31022;-71
2022/03/23 04:00:20;;;;;;;137.05;62.85;;;;;;;-1.71;58.05;101896.54;2037879;87;33016;-72
2022/03/23 04:03:22;;;;;;;130.43;65.40;;;;;;;-1.74;58.36;101896.45;2031285;87;29378;-77
2022/03/23 04:06:25;;;;;;;121.37;61.85;;;;;;;-1.76;58.12;101907.78;2003491;88;27623;-78
2022/03/23 04:09:26;;;;;;;141.95;64.97;;;;;;;-1.79;58.47;101905.94;2002981;88;28629;-75
2022/03/23 04:12:28;;;;;;;127.85;63.90;;;;;;;-1.80;58.48;101908.53;2003176;88;31835;-74
2022/03/23 04:15:30;;;;;;;127.02;65.15;;;;;;;-1.80;58.62;101906.78;2004363;88;33029;-75
2022/03/23 04:18:32;;;;;;;136.12;66.30;;;;;;;-1.81;58.80;101907.63;2004623;88;28779;-64
2022/03/23 04:21:34;;;;;;;137.12;68.22;;;;;;;-1.84;58.78;101906.26;2003196;88;27717;-66
2022/03/23 04:24:36;;;;;;;142.98;67.97;;;;;;;-1.85;58.90;101912.36;1998855;89;29315;-66
2022/03/23 04:27:54;;;;;;;154.23;72.62;;;;;;;-1.88;58.92;101913.14;1998880;89;31836;-65
2022/03/23 04:30:56;;;;;;;158.07;75.42;;;;;;;-1.90;58.95;101904.32;2051008;86;32980;-64
2022/03/23 04:33:58;;;;;;;165.07;72.97;;;;;;;-1.91;58.91;101913.48;2057112;86;29325;-67
2022/03/23 04:37:01;;;;;;;156.37;72.70;;;;;;;-1.96;58.96;101913.36;2069418;85;27766;-65
2022/03/23 04:40:05;;;;;;;164.05;76.75;;;;;;;-1.97;59.08;101915.52;2069902;85;28648;-67
2022/03/23 04:43:07;;;;;;;162.18;74.05;;;;;;;-2.00;59.44;101924.22;2051301;85;31194;-70
2022/03/23 04:46:08;;;;;;;166.53;75.70;;;;;;;-2.03;59.24;101922.81;2049805;86;33579;-66
2022/03/23 04:49:13;;;;;;;174.57;77.53;;;;;;;-2.06;59.44;101918.77;2057549;86;30250;-67
2022/03/23 04:52:16;;;;;;;177.15;77.67;;;;;;;-2.07;59.58;101912.19;2069581;86;33094;-68
2022/03/23 04:55:19;;;;;;;156.65;75.22;;;;;;;-2.09;59.52;101910.80;2010585;88;28667;-66
2022/03/23 04:58:21;;;;;;;155.12;72.22;;;;;;;-2.10;59.87;101912.96;2052508;86;32030;-69
2022/03/23 05:01:22;;;;;;;158.22;75.80;;;;;;;-2.08;60.00;101915.65;2052835;86;32890;-69
2022/03/23 05:04:24;;;;;;;168.78;75.12;;;;;;;-2.07;59.93;101912.19;2053136;86;29317;-67
2022/03/23 05:07:26;;;;;;;192.65;83.27;;;;;;;-2.07;59.85;101915.69;2052961;86;27689;-71
2022/03/23 05:10:28;;;;;;;207.87;87.60;;;;;;;-2.03;60.58;101921.50;2052972;86;29272;-71
2022/03/23 05:13:29;;;;;;;164.35;79.40;;;;;;;-2.00;60.42;101923.31;2052119;86;31107;-68
2022/03/23 05:16:31;;;;;;;157.12;77.00;;;;;;;-1.96;60.60;101918.62;2051205;86;33002;-66
2022/03/23 05:19:35;;;;;;;157.55;77.53;;;;;;;-1.91;60.61;101918.73;2066253;86;29469;-68
2022/03/23 05:22:37;;;;;;;171.47;82.90;;;;;;;-1.86;60.67;101914.52;2070088;85;27617;-67
2022/03/23 05:25:39;;;;;;;195.18;89.20;;;;;;;-1.79;60.92;101912.95;2061455;86;28632;-67
2022/03/23 05:28:41;;;;;;;156.07;77.25;;;;;;;-1.71;61.08;101914.02;2052566;86;31017;-73
2022/03/23 05:31:43;;;;;;;149.32;75.32;;;;;;;-1.62;60.98;101907.72;2052439;86;34043;-67
2022/03/23 05:34:46;;;;;;;164.32;78.20;;;;;;;-1.57;60.81;101900.83;2067066;86;30127;-67
2022/03/23 05:37:47;;;;;;;153.80;74.60;;;;;;;-1.46;60.89;101907.69;2059660;86;27734;-69
2022/03/23 05:40:49;;;;;;;156.25;73.40;;;;;;;-1.35;60.85;101908.41;2051538;86;29318;-66
2022/03/23 05:43:51;;;;;;;147.95;74.70;;;;;;;-1.25;60.74;101907.78;2052274;86;31172;-70
2022/03/23 05:46:53;;;;;;;163.60;75.40;;;;;;;-1.16;60.62;101905.80;2052457;86;33784;-70
2022/03/23 05:49:54;;;;;;;146.55;74.50;;;;;;;-1.07;60.72;101900.75;2010350;87;30105;-66
2022/03/23 05:52:56;;;;;;;148.50;73.83;;;;;;;-0.93;60.84;101906.36;2052618;86;27717;-69
2022/03/23 05:55:58;;;;;;;142.72;72.95;;;;;;;-0.81;60.83;101910.59;2051234;86;29618;-67
2022/03/23 05:59:00;;;;;;;146.82;73.70;;;;;;;-0.67;60.82;101906.97;2052615;86;31002;-66
2022/03/23 06:02:02;;;;;;;140.70;70.15;;;;;;;-0.51;60.93;101900.73;2053006;86;33036;-67
2022/03/23 06:05:04;;;;;;;145.47;72.90;;;;;;;-0.35;60.70;101901.52;2052970;86;30127;-67
2022/03/23 06:08:06;;;;;;;142.43;73.95;;;;;;;-0.19;60.70;101901.84;2052991;86;27684;-67
2022/03/23 06:11:08;;;;;;;137.40;69.20;;;;;;;-0.03;60.81;101897.80;2052912;86;28675;-67
2022/03/23 06:14:09;;;;;;;125.22;66.25;;;;;;;0.17;61.03;101901.26;2052882;86;31237;-67
2022/03/23 06:17:11;;;;;;;124.15;64.97;;;;;;;0.54;60.72;101908.50;2014065;87;32623;-66
2022/03/23 06:20:14;;;;;;;130.27;67.37;;;;;;;1.03;60.39;101908.02;2043366;87;29319;-65
2022/03/23 06:23:16;;;;;;;132.35;67.90;;;;;;;1.60;59.96;101902.69;2052832;86;27717;-64
2022/03/23 06:26:17;;;;;;;121.10;68.75;;;;;;;2.20;59.25;101899.01;2052359;86;28174;-65
2022/03/23 06:29:19;;;;;;;130.25;68.28;;;;;;;2.79;58.80;101903.11;2059125;86;31027;-66
2022/03/23 06:32:21;;;;;;;118.20;66.92;;;;;;;3.37;58.22;101891.61;2070016;85;32945;-66
2022/03/23 06:35:26;;;;;;;109.30;61.90;;;;;;;3.98;57.75;101890.13;2069471;85;29326;-66
2022/03/23 06:38:27;;;;;;;119.90;63.50;;;;;;;4.63;57.11;101889.84;2070217;85;27647;-66
2022/03/23 06:41:29;;;;;;;113.57;64.75;;;;;;;5.32;56.59;101892.00;2069929;86;28834;-67
2022/03/23 06:44:30;;;;;;;116.12;62.05;;;;;;;5.90;55.62;101882.05;2069891;86;31150;-66
2022/03/23 06:47:32;;;;;;;115.62;64.75;;;;;;;6.46;54.68;101885.77;2069796;85;32939;-67
2022/03/23 06:50:35;;;;;;;122.72;65.95;;;;;;;6.94;54.02;101878.28;2070142;85;29551;-67
2022/03/23 06:53:38;;;;;;;112.42;63.95;;;;;;;7.41;53.40;101882.72;2070117;86;27704;-67
2022/03/23 06:56:43;;;;;;;112.62;60.90;;;;;;;7.85;52.67;101886.20;2067217;86;28688;-67
2022/03/23 06:59:46;;;;;;;113.97;60.50;;;;;;;8.30;51.72;101885.14;2052598;84;31795;-66
2022/03/23 07:02:49;;;;;;;120.20;64.80;;;;;;;8.75;51.40;101880.95;2052985;86;33925;-66
2022/03/23 07:05:51;;;;;;;110.42;63.95;;;;;;;9.18;50.96;101888.68;2052945;86;30087;-67
2022/03/23 07:12:13;;;;;;;108.10;60.73;;;;;;;10.06;49.69;101876.66;2052759;86;28684;-66
2022/03/23 07:15:14;;;;;;;103.02;57.80;;;;;;;10.55;49.33;101873.35;2010501;88;31813;-66
2022/03/23 07:18:16;;;;;;;106.58;59.80;;;;;;;10.97;48.30;101869.16;2052201;86;33038;-66
2022/03/23 07:21:18;;;;;;;107.37;60.10;;;;;;;11.36;47.21;101865.00;2053001;86;29958;-66
2022/03/23 07:24:20;;;;;;;98.80;57.30;;;;;;;11.67;46.96;101865.91;2053164;86;27798;-66
2022/03/23 07:27:24;;;;;;;105.52;57.48;;;;;;;12.06;46.72;101861.66;2053107;86;28650;-67
2022/03/23 07:30:26;;;;;;;95.65;54.08;;;;;;;12.42;45.96;101863.23;2051301;86;32849;-67
2022/03/23 07:33:31;;;;;;;93.33;56.18;;;;;;;12.81;45.54;101868.71;2051872;86;32972;-67
2022/03/23 07:36:33;;;;;;;90.38;55.33;;;;;;;13.18;44.90;101858.89;2010698;87;29411;-67
2022/03/23 07:39:34;;;;;;;94.70;56.83;;;;;;;13.57;44.31;101858.02;2004933;88;27626;-67
2022/03/23 07:42:36;;;;;;;99.10;55.43;;;;;;;13.78;43.09;101853.63;2004644;88;29625;-67
2022/03/23 07:45:38;;;;;;;96.30;55.63;;;;;;;14.01;42.34;101850.03;2004337;88;31258;-67
2022/03/23 07:48:40;;;;;;;90.20;53.17;;;;;;;14.23;42.27;101848.71;2022591;87;33760;-66
2022/03/23 07:51:42;;;;;;;82.33;53.15;;;;;;;14.54;41.30;101852.84;2004761;88;29426;-67
2022/03/23 07:54:43;;;;;;;83.17;52.13;;;;;;;14.77;41.26;101849.70;2004920;88;27704;-67
2022/03/23 07:57:45;;;;;;;83.65;49.10;;;;;;;15.16;40.93;101842.16;2004899;87;29488;-66
2022/03/23 08:00:48;;;;;;;86.05;52.35;;;;;;;15.53;40.03;101842.34;2013513;88;31156;-67
2022/03/23 08:03:50;;;;;;;83.55;50.08;;;;;;;15.90;39.63;101836.58;2013848;88;33094;-67
2022/03/23 08:06:51;;;;;;;80.83;49.48;;;;;;;16.04;38.96;101834.58;2013830;88;29554;-66
2022/03/23 08:09:54;;;;;;;78.92;48.52;;;;;;;16.27;38.72;101831.70;2013905;88;27672;-67
2022/03/23 08:12:56;;;;;;;83.80;51.33;;;;;;;16.44;38.14;101832.24;2013459;88;29554;-66
2022/03/23 08:15:58;;;;;;;79.72;48.35;;;;;;;16.54;37.32;101827.65;2013774;88;31026;-67
2022/03/23 08:19:00;;;;;;;80.50;48.55;;;;;;;16.74;37.43;101827.09;2014321;86;33039;-66
2022/03/23 08:22:02;;;;;;;77.50;48.90;;;;;;;16.91;36.26;101834.36;2013795;88;30133;-66
2022/03/23 08:25:05;;;;;;;84.60;52.00;;;;;;;16.91;36.31;101832.11;2013282;88;27621;-66
2022/03/23 08:28:09;;;;;;;82.92;48.58;;;;;;;16.99;36.02;101831.28;2012088;88;28746;-67
2022/03/23 08:31:12;;;;;;;85.10;53.17;;;;;;;17.25;36.00;101830.37;1982130;89;30310;-66
2022/03/23 08:34:15;;;;;;;81.87;49.93;;;;;;;17.45;35.82;101830.67;2002280;88;33006;-67
2022/03/23 08:37:20;;;;;;;92.12;54.45;;;;;;;17.46;35.17;101835.11;2023517;86;30212;-66
2022/03/23 08:40:24;;;;;;;93.87;55.85;;;;;;;17.34;34.69;101831.25;2046545;87;27688;-66
2022/03/23 08:43:26;;;;;;;86.32;51.80;;;;;;;16.96;34.31;101830.08;2046439;86;28641;-67
2022/03/23 08:46:29;;;;;;;74.87;48.70;;;;;;;16.60;34.29;101828.27;2006161;86;31660;-66
2022/03/23 08:49:31;;;;;;;77.03;48.05;;;;;;;16.35;33.98;101823.61;2049935;86;34088;-66
2022/03/23 08:52:34;;;;;;;77.78;45.95;;;;;;;16.19;34.77;101817.20;2049985;86;29338;-66
2022/03/23 08:55:37;;;;;;;72.32;45.65;;;;;;;16.02;34.17;101810.80;2049923;86;27682;-67
2022/03/23 08:58:47;;;;;;;76.37;46.58;;;;;;;15.85;33.87;101812.98;2019738;86;28616;-66
2022/03/23 09:01:48;;;;;;;75.42;43.90;;;;;;;15.66;34.11;101808.86;2012928;88;31858;-66
2022/03/23 09:04:51;;;;;;;53.80;36.88;;;;;;;15.50;33.50;101807.36;2012995;88;33622;-66
2022/03/23 09:07:55;;;;;;;58.33;36.03;;;;;;;15.32;32.80;101814.01;2013023;88;30101;-67
2022/03/23 09:10:57;;;;;;;65.00;37.63;;;;;;;15.27;33.54;101807.93;2013527;88;27724;-67
2022/03/23 09:13:59;;;;;;;55.00;33.83;;;;;;;15.27;33.60;101805.72;2013434;88;28682;-66
2022/03/23 09:17:03;;;;;;;51.80;33.60;;;;;;;15.35;33.30;101804.88;2020070;86;31038;-67
2022/03/23 09:20:07;;;;;;;55.83;34.35;;;;;;;15.42;33.20;101799.61;2013323;88;32958;-67
2022/03/23 09:23:09;;;;;;;58.00;34.30;;;;;;;15.41;32.87;101769.96;2013492;88;29575;-66
2022/03/23 09:26:11;;;;;;;49.50;30.62;;;;;;;15.63;32.65;101788.77;2013714;88;27636;-66
2022/03/23 09:29:13;;;;;;;47.78;32.55;;;;;;;15.75;32.65;101778.72;2013458;88;28760;-66
2022/03/23 09:32:16;;;;;;;49.70;31.23;;;;;;;15.83;31.79;101781.05;2013482;88;31048;-66
2022/03/23 09:35:18;;;;;;;38.10;24.67;;;;;;;15.97;31.84;101768.73;2012719;88;34224;-67
2022/03/23 09:38:20;;;;;;;42.13;26.57;;;;;;;15.97;31.84;101768.73;2038696;86;29316;-67
2022/03/23 09:41:23;;;;;;;40.15;25.85;;;;;;;16.05;31.49;101774.16;2034139;86;27715;-66
2022/03/23 09:44:31;;;;;;;45.43;28.70;;;;;;;16.15;31.62;101762.42;2011792;88;28685;-65
2022/03/23 09:47:32;;;;;;;46.20;27.27;;;;;;;16.15;31.62;101762.42;2040218;86;31034;-66
2022/03/23 09:50:37;;;;;;;48.23;25.72;;;;;;;16.17;31.42;101766.38;1995216;88;33661;-66
2022/03/23 09:53:40;;;;;;;47.03;29.63;;;;;;;16.17;30.30;101765.03;2013807;88;29511;-67
2022/03/23 09:56:43;;;;;;;47.78;27.93;;;;;;;16.10;30.03;101758.59;2013514;88;27612;-66
2022/03/23 09:59:46;;;;;;;41.53;25.95;;;;;;;16.08;30.53;101753.73;2013205;87;29370;-67
2022/03/23 10:03:13;;;;;;;47.13;29.80;;;;;;;16.18;30.51;101751.45;2012591;88;31821;-67
2022/03/23 10:06:56;;;;;;;49.58;29.52;;;;;;;16.18;30.51;101751.45;2013696;88;32996;-66
2022/03/23 10:10:39;;;;;;;42.10;27.32;;;;;;;16.26;30.44;101744.31;1919312;92;29368;-66
2022/03/23 10:14:29;;;;;;;36.35;24.47;;;;;;;16.34;30.52;101740.72;1918848;92;27843;-66
2022/03/23 10:18:16;;;;;;;40.73;28.73;;;;;;;16.41;29.93;101739.93;1875153;94;29836;-67
2022/03/23 10:21:20;;;;;;;41.33;27.73;;;;;;;16.47;29.89;101738.28;1918677;92;31935;-67
2022/03/23 10:24:30;;;;;;;39.78;26.93;;;;;;;16.51;29.28;101725.00;1919691;92;33748;-67
2022/03/23 10:27:33;;;;;;;39.90;25.30;;;;;;;16.63;29.91;101718.54;1919718;92;29345;-68
2022/03/23 10:30:38;;;;;;;40.73;25.85;;;;;;;16.63;29.91;101718.54;1896362;92;27868;-68
2022/03/23 10:33:41;;;;;;;40.20;26.15;;;;;;;16.84;29.88;101714.70;1890563;94;28727;-67
2022/03/23 10:36:49;;;;;;;42.10;27.15;;;;;;;16.84;29.88;101714.70;1890157;94;31084;-67
2022/03/23 10:39:53;;;;;;;43.23;27.75;;;;;;;16.94;29.59;101708.78;1890703;94;33689;-66
2022/03/23 10:42:56;;;;;;;41.60;27.37;;;;;;;17.04;29.39;101706.02;1890811;94;29231;-67
2022/03/23 10:46:01;;;;;;;41.60;26.00;;;;;;;17.09;29.14;101693.09;1897974;92;27854;-67
2022/03/23 10:49:03;;;;;;;39.60;27.60;;;;;;;17.13;28.55;101692.43;1931918;92;28811;-67
2022/03/23 10:52:17;;;;;;;41.98;25.12;;;;;;;17.19;28.83;101687.19;1934171;92;31687;-66
2022/03/23 10:55:21;;;;;;;44.88;25.80;;;;;;;17.22;28.51;101687.87;2059486;86;33052;-67
2022/03/23 10:58:25;;;;;;;40.15;25.50;;;;;;;17.26;28.55;101681.34;2070129;86;29329;-67
2022/03/23 11:01:27;;;;;;;34.38;20.92;;;;;;;17.33;28.54;101671.03;2083940;84;28282;-67
2022/03/23 11:04:47;;;;;;;27.20;18.05;;;;;;;17.45;28.28;101666.27;2106504;84;29434;-67
2022/03/23 11:07:49;;;;;;;35.68;18.25;;;;;;;17.59;27.61;101658.72;2105399;84;32174;-67
2022/03/23 11:17:31;;;;;;;27.67;16.67;;;;;;;17.90;27.23;101640.66;1990596;88;27746;-67
2022/03/23 11:20:50;;;;;;;25.15;17.55;;;;;;;18.02;26.09;101638.20;1990252;89;29497;-67
2022/03/23 11:23:52;;;;;;;24.27;16.80;;;;;;;18.10;26.86;101629.14;1988873;89;31051;-67
2022/03/23 11:26:55;;;;;;;20.80;13.55;;;;;;;18.20;26.31;101623.53;1988874;89;33016;-67
2022/03/23 11:29:57;;;;;;;26.73;16.48;;;;;;;18.31;25.94;101624.70;1988848;89;30104;-68
2022/03/23 11:33:00;;;;;;;31.20;19.37;;;;;;;18.38;26.21;101614.73;1989050;89;27772;-67
2022/03/23 11:36:08;;;;;;;27.62;17.37;;;;;;;18.45;26.03;101607.59;1988966;89;28650;-67
2022/03/23 11:39:11;;;;;;;29.18;17.23;;;;;;;18.49;25.74;101597.80;1988419;89;31035;-67
2022/03/23 11:42:14;;;;;;;23.02;13.65;;;;;;;18.55;25.51;101588.89;1989848;89;33178;-67
2022/03/23 11:45:17;;;;;;;20.37;13.60;;;;;;;18.58;25.12;101588.70;1952006;89;30114;-66
2022/03/23 11:48:39;;;;;;;16.10;11.20;;;;;;;18.63;24.96;101588.80;1979628;89;28285;-67
2022/03/23 11:52:03;;;;;;;19.92;12.47;;;;;;;18.68;24.93;101586.67;1947813;91;28660;-67
2022/03/23 11:55:45;;;;;;;24.90;13.58;;;;;;;18.72;24.61;101588.70;1998475;87;31885;-67
2022/03/23 11:58:43;;;;;;;13.28;9.48;;;;;;;18.75;24.36;101587.62;2027398;87;33365;-66
2022/03/23 12:01:45;;;;;;;15.48;8.75;;;;;;;18.81;23.99;101582.67;2045280;87;29319;-67
2022/03/23 12:04:47;;;;;;;15.85;8.65;;;;;;;18.82;23.62;101574.06;2071733;85;27702;-67
2022/03/23 12:07:48;;;;;;;13.75;8.70;;;;;;;18.85;23.46;101571.16;2071693;85;28798;-67
2022/03/23 12:10:50;;;;;;;18.17;9.13;;;;;;;18.91;23.70;101562.59;2101730;84;31013;-67
2022/03/23 12:13:56;;;;;;;11.80;8.33;;;;;;;18.98;23.76;101568.53;2065019;85;32954;-66
2022/03/23 12:17:02;;;;;;;13.90;9.08;;;;;;;19.02;23.46;101555.14;2095932;84;30121;-66
2022/03/23 12:20:09;;;;;;;16.62;9.68;;;;;;;19.03;23.33;101554.17;2106587;84;27776;-67
2022/03/23 12:23:45;;;;;;;14.15;10.18;;;;;;;19.05;23.69;101546.80;2106743;84;28664;-67
2022/03/23 12:26:51;;;;;;;15.70;10.78;;;;;;;19.10;23.87;101544.66;2098219;84;30994;-66
2022/03/23 12:29:53;;;;;;;18.00;11.43;;;;;;;19.11;23.61;101540.08;2062872;85;33074;-66
2022/03/23 12:32:57;;;;;;;16.50;10.58;;;;;;;19.11;23.55;101532.79;2072263;85;29403;-66
2022/03/23 12:36:02;;;;;;;14.05;9.65;;;;;;;19.13;23.48;101531.35;2072885;85;27624;-66
2022/03/23 12:39:03;;;;;;;14.28;9.95;;;;;;;19.12;23.29;101526.39;2072779;85;29657;-66
2022/03/23 12:42:18;;;;;;;15.48;10.48;;;;;;;19.11;23.31;101521.07;2073836;85;31023;-66
2022/03/23 12:45:23;;;;;;;13.28;8.70;;;;;;;19.10;23.08;101513.42;2021274;87;33138;-66
2022/03/23 12:58:42;;;;;;;15.75;9.08;;;;;;;19.13;23.08;101497.39;2082026;84;31080;-66
2022/03/23 13:01:45;;;;;;;18.17;9.88;;;;;;;19.16;22.75;101489.52;2049274;85;33106;-66
2022/03/23 13:04:50;;;;;;;16.17;9.18;;;;;;;19.20;22.68;101477.48;2055763;86;29335;-66
2022/03/23 13:07:51;;;;;;;12.43;9.00;;;;;;;19.24;22.85;101481.73;2069968;86;27722;-66
2022/03/23 13:10:58;;;;;;;13.98;9.00;;;;;;;19.28;22.46;101477.34;2052717;85;28690;-67
2022/03/23 13:14:00;;;;;;;17.52;9.25;;;;;;;19.31;22.67;101478.11;2051999;86;32054;-66
2022/03/23 13:17:02;;;;;;;13.30;8.73;;;;;;;19.33;22.70;101474.81;2052871;86;33831;-67
2022/03/23 13:20:08;;;;;;;16.12;8.30;;;;;;;19.36;22.58;101471.39;2032208;86;29319;-68
2022/03/23 13:23:14;;;;;;;10.80;8.40;;;;;;;19.36;22.54;101461.88;2053014;86;27689;-67
2022/03/23 13:26:22;;;;;;;19.00;9.05;;;;;;;19.39;22.36;101452.63;2053810;86;29553;-67
2022/03/23 13:29:27;;;;;;;12.68;10.32;;;;;;;19.41;22.43;101455.65;2062864;85;31863;-67
2022/03/23 13:32:36;;;;;;;12.40;8.98;;;;;;;19.44;22.46;101455.41;2052531;86;33806;-64
2022/03/23 13:35:44;;;;;;;12.75;8.73;;;;;;;19.48;22.23;101452.48;2052835;86;30127;-70
2022/03/23 13:38:55;;;;;;;12.45;8.50;;;;;;;19.49;22.03;101444.72;2051392;86;27738;-69
2022/03/23 13:45:17;;;;;;;13.80;9.00;;;;;;;19.50;21.99;101432.88;2058522;86;31886;-73
2022/03/23 13:48:19;;;;;;;16.40;9.25;;;;;;;19.50;22.10;101424.25;2068619;85;32868;-67
2022/03/23 13:51:21;;;;;;;15.95;8.53;;;;;;;19.51;22.01;101417.84;2051079;86;29390;-67
2022/03/23 13:54:23;;;;;;;12.95;9.10;;;;;;;19.54;21.82;101412.66;2051142;86;27796;-68
2022/03/23 13:57:29;;;;;;;12.40;9.18;;;;;;;19.54;21.80;101418.09;2052465;86;28646;-71
2022/03/23 14:00:32;;;;;;;13.20;8.60;;;;;;;19.54;21.76;101405.87;2058319;85;31306;-67
2022/03/23 14:03:37;;;;;;;12.43;8.80;;;;;;;19.53;21.68;101400.91;2068837;86;33969;-69
2022/03/23 14:06:50;;;;;;;16.73;8.48;;;;;;;19.52;21.81;101400.55;2070792;86;29332;-69
2022/03/23 14:09:52;;;;;;;14.55;8.35;;;;;;;19.48;21.63;101394.94;2070459;86;27792;-67
2022/03/23 14:12:57;;;;;;;13.55;8.10;;;;;;;19.46;21.44;101396.00;2070885;86;29525;-69
2022/03/23 14:16:00;;;;;;;10.63;7.45;;;;;;;19.43;21.29;101387.12;2070910;86;31028;-69
2022/03/23 14:19:02;;;;;;;14.65;7.97;;;;;;;19.44;21.39;101383.89;2097086;84;33118;-72
2022/03/23 14:22:08;;;;;;;12.85;7.40;;;;;;;19.41;21.38;101384.99;2079845;84;30168;-69
2022/03/23 14:25:12;;;;;;;10.08;8.28;;;;;;;19.37;21.10;101379.38;2062632;86;27741;-72
2022/03/23 14:28:19;;;;;;;11.67;7.73;;;;;;;19.34;21.11;101374.66;2062140;86;29411;-70
2022/03/23 14:31:23;;;;;;;12.73;6.95;;;;;;;19.30;21.44;101371.27;2069294;86;31804;-69
2022/03/23 14:34:26;;;;;;;16.73;8.35;;;;;;;19.27;21.24;101364.20;2070590;86;33625;-72
2022/03/23 14:37:41;;;;;;;11.68;8.20;;;;;;;19.25;21.21;101366.66;2065690;84;29408;-72